Time;durP1;ratioP1;P1;durP2;ratioP2;P2;SDS_P1;SDS_P2;PMS_P1;PMS_P2;Temp;Humidity;BMP_temperature;BMP_pressure;BME280_temperature;BME280_humidity;BME280_pressure;Samples;Min_cycle;Max_cycle;Signal;HPM_P1;HPM_P2
2021/11/19 00:01:50;;;;;;;4.95;4.00;;;9.30;99.90;;;;;;5088891;28;20432;-56
2021/11/19 00:04:17;;;;;;;5.45;3.38;;;9.30;99.90;;;;;;5099318;28;20235;-56
2021/11/19 00:06:44;;;;;;;3.78;3.10;;;9.30;99.90;;;;;;5089477;28;20468;-60
2021/11/19 00:09:12;;;;;;;3.15;2.75;;;9.30;99.90;;;;;;5097557;28;20222;-57
2021/11/19 00:11:43;;;;;;;5.60;2.10;;;9.30;99.90;;;;;;5095865;28;20198;-51
2021/11/19 00:14:11;;;;;;;5.40;4.03;;;9.30;99.90;;;;;;5099469;28;20198;-54
2021/11/19 00:16:41;;;;;;;5.35;3.40;;;9.30;99.90;;;;;;5096538;28;20289;-55
2021/11/19 00:19:08;;;;;;;3.90;2.80;;;9.20;99.90;;;;;;5098855;28;20226;-56
2021/11/19 00:21:37;;;;;;;4.70;3.45;;;9.20;99.90;;;;;;5098821;28;20431;-53
2021/11/19 00:24:05;;;;;;;3.20;2.90;;;9.10;99.90;;;;;;5102662;28;20202;-55
2021/11/19 00:26:34;;;;;;;3.38;3.17;;;9.10;99.90;;;;;;5093695;28;20451;-56
2021/11/19 00:29:02;;;;;;;5.20;4.03;;;9.10;99.90;;;;;;5096835;28;20219;-56
2021/11/19 00:31:30;;;;;;;3.42;3.10;;;9.10;99.90;;;;;;5095484;28;20203;-57
2021/11/19 00:33:57;;;;;;;8.30;4.38;;;9.10;99.90;;;;;;5099963;28;20207;-55
2021/11/19 00:36:29;;;;;;;6.15;2.75;;;9.10;99.90;;;;;;5095190;28;20259;-58
2021/11/19 00:39:01;;;;;;;9.43;3.80;;;9.20;99.90;;;;;;5101094;28;20271;-57
2021/11/19 00:41:29;;;;;;;7.25;3.17;;;9.20;99.90;;;;;;5105727;28;20264;-50
2021/11/19 00:43:57;;;;;;;5.22;3.75;;;9.20;99.90;;;;;;5102480;28;20252;-60
2021/11/19 00:46:25;;;;;;;6.10;3.13;;;9.30;99.90;;;;;;5104497;28;20378;-55
2021/11/19 00:48:52;;;;;;;5.65;2.95;;;9.30;99.90;;;;;;5094835;28;20194;-57
2021/11/19 00:51:24;;;;;;;5.93;3.22;;;9.20;99.90;;;;;;5094429;28;20217;-57
2021/11/19 00:53:54;;;;;;;6.10;3.53;;;9.20;99.90;;;;;;5109641;28;20232;-58
2021/11/19 00:56:25;;;;;;;4.22;3.35;;;9.30;99.90;;;;;;5094695;28;20194;-59
2021/11/19 00:58:53;;;;;;;2.95;2.63;;;9.20;99.90;;;;;;5097271;28;20236;-56
2021/11/19 01:01:29;;;;;;;4.93;3.60;;;9.20;99.90;;;;;;5094813;28;20404;-53
2021/11/19 01:03:58;;;;;;;6.18;3.28;;;9.20;99.90;;;;;;5101870;28;20209;-55
2021/11/19 01:06:25;;;;;;;4.20;3.70;;;9.20;99.90;;;;;;5101998;28;20217;-55
2021/11/19 01:08:53;;;;;;;2.88;2.60;;;9.10;99.90;;;;;;5102299;28;20436;-56
2021/11/19 01:11:23;;;;;;;5.05;3.10;;;9.20;99.90;;;;;;5102848;28;20475;-56
2021/11/19 01:13:55;;;;;;;3.50;3.20;;;9.20;99.90;;;;;;5110348;28;20194;-57
2021/11/19 01:16:27;;;;;;;5.35;2.88;;;9.10;99.90;;;;;;5099449;28;20202;-58
2021/11/19 01:18:58;;;;;;;2.88;2.65;;;9.20;99.90;;;;;;5098899;28;20226;-55
2021/11/19 01:21:33;;;;;;;3.65;2.60;;;9.10;99.90;;;;;;5108684;28;20237;-55
2021/11/19 01:24:02;;;;;;;3.33;2.85;;;9.10;99.90;;;;;;5097149;28;20233;-59
2021/11/19 01:26:33;;;;;;;5.85;3.92;;;9.10;99.90;;;;;;5102562;28;20249;-56
2021/11/19 01:29:04;;;;;;;3.85;3.13;;;9.10;99.90;;;;;;5095145;28;20285;-53
2021/11/19 01:31:35;;;;;;;4.15;2.88;;;9.10;99.90;;;;;;5101948;28;20232;-57
2021/11/19 01:34:03;;;;;;;7.15;3.28;;;9.10;99.90;;;;;;5096184;28;20256;-56
2021/11/19 01:36:31;;;;;;;7.38;3.55;;;9.10;99.90;;;;;;5108789;28;20201;-55
2021/11/19 01:39:00;;;;;;;2.80;2.60;;;9.00;99.90;;;;;;5098631;28;20604;-55
2021/11/19 01:41:39;;;;;;;3.03;2.35;;;9.00;99.90;;;;;;5107447;28;20244;-53
2021/11/19 01:44:16;;;;;;;4.47;3.05;;;9.00;99.90;;;;;;5091830;28;20224;-58
2021/11/19 01:46:47;;;;;;;3.80;2.78;;;8.90;99.90;;;;;;5093798;28;20215;-54
2021/11/19 01:49:15;;;;;;;3.55;2.28;;;8.80;99.90;;;;;;5100854;28;20214;-56
2021/11/19 01:51:48;;;;;;;3.53;2.63;;;8.80;99.90;;;;;;5098662;28;20194;-56
2021/11/19 01:54:28;;;;;;;6.80;3.42;;;8.80;99.90;;;;;;5094785;28;20215;-55
2021/11/19 01:57:22;;;;;;;3.22;2.65;;;8.60;99.90;;;;;;5098473;28;20197;-56
2021/11/19 02:00:19;;;;;;;4.20;3.03;;;8.60;99.90;;;;;;5089723;28;20246;-59
2021/11/19 02:02:49;;;;;;;3.45;3.15;;;8.50;99.90;;;;;;5095447;28;20432;-54
2021/11/19 02:05:25;;;;;;;4.13;3.05;;;8.50;99.90;;;;;;5101223;28;20434;-56
2021/11/19 02:07:55;;;;;;;3.58;3.10;;;8.50;99.90;;;;;;5096119;28;20268;-58
2021/11/19 02:10:32;;;;;;;2.90;2.70;;;8.40;99.90;;;;;;5099719;28;20210;-55
2021/11/19 02:13:20;;;;;;;2.67;2.45;;;8.40;99.90;;;;;;5099159;28;20194;-54
2021/11/19 02:16:05;;;;;;;3.55;2.60;;;8.50;99.90;;;;;;5104548;28;20198;-54
2021/11/19 02:18:36;;;;;;;3.70;2.88;;;8.50;99.90;;;;;;5101552;28;20237;-53
2021/11/19 02:21:12;;;;;;;3.38;2.67;;;8.40;99.90;;;;;;5100445;28;20397;-54
2021/11/19 02:23:47;;;;;;;2.95;2.75;;;8.40;99.90;;;;;;5095730;28;20198;-58
2021/11/19 02:26:19;;;;;;;4.00;3.60;;;8.30;99.90;;;;;;5099428;28;20213;-56
2021/11/19 02:28:49;;;;;;;2.95;2.75;;;8.40;99.90;;;;;;5088412;28;20396;-57
2021/11/19 02:31:22;;;;;;;3.50;2.75;;;8.30;99.90;;;;;;5100758;28;20220;-55
2021/11/19 02:33:53;;;;;;;5.78;3.05;;;8.30;99.90;;;;;;5097304;28;20198;-55
2021/11/19 02:36:50;;;;;;;4.15;3.05;;;8.40;99.90;;;;;;5092715;28;20371;-55
2021/11/19 02:39:22;;;;;;;4.32;2.97;;;8.30;99.90;;;;;;5100482;28;20222;-55
2021/11/19 02:41:57;;;;;;;3.95;3.58;;;8.40;99.90;;;;;;5099283;28;20201;-53
2021/11/19 02:44:34;;;;;;;5.18;3.45;;;8.30;99.90;;;;;;5101017;28;20194;-54
2021/11/19 02:47:05;;;;;;;3.35;3.05;;;8.30;99.90;;;;;;5089308;28;20214;-55
2021/11/19 02:49:32;;;;;;;5.15;4.15;;;8.30;99.90;;;;;;5095811;28;20275;-54
2021/11/19 02:52:00;;;;;;;3.95;3.55;;;8.30;99.90;;;;;;5091568;28;20277;-55
2021/11/19 02:54:30;;;;;;;4.22;3.67;;;8.40;99.90;;;;;;5100813;28;20197;-58
2021/11/19 02:56:59;;;;;;;2.50;2.30;;;8.40;99.90;;;;;;5096148;28;20206;-56
2021/11/19 02:59:27;;;;;;;4.35;2.58;;;8.40;99.90;;;;;;5092467;28;20263;-55
2021/11/19 03:02:05;;;;;;;4.20;3.03;;;8.40;99.90;;;;;;5096687;28;20206;-52
2021/11/19 03:04:36;;;;;;;4.38;3.00;;;8.40;99.90;;;;;;5095056;28;20243;-54
2021/11/19 03:07:04;;;;;;;3.72;2.88;;;8.40;99.90;;;;;;5090267;28;20225;-57
2021/11/19 03:09:54;;;;;;;5.18;3.33;;;8.50;99.90;;;;;;5092859;28;20221;-57
2021/11/19 03:12:23;;;;;;;4.15;3.10;;;8.40;99.90;;;;;;5088372;28;20206;-55
2021/11/19 03:14:53;;;;;;;3.13;2.92;;;8.40;99.90;;;;;;5098474;28;20257;-58
2021/11/19 03:17:22;;;;;;;4.10;3.08;;;8.40;99.90;;;;;;5094838;28;20198;-54
2021/11/19 03:19:49;;;;;;;8.68;3.50;;;8.40;99.90;;;;;;5105829;28;20218;-57
2021/11/19 03:22:19;;;;;;;3.28;2.97;;;8.40;99.90;;;;;;5102438;28;20579;-55
2021/11/19 03:24:47;;;;;;;6.40;3.15;;;8.40;99.90;;;;;;5100316;28;20210;-57
2021/11/19 03:27:17;;;;;;;5.47;3.03;;;8.40;99.90;;;;;;5096520;28;20528;-54
2021/11/19 03:29:46;;;;;;;3.45;2.70;;;8.40;99.90;;;;;;5100467;28;20218;-55
2021/11/19 03:32:18;;;;;;;6.70;2.70;;;8.40;99.90;;;;;;5096958;28;20248;-56
2021/11/19 03:34:45;;;;;;;3.88;3.50;;;8.40;99.90;;;;;;5100920;28;20194;-56
2021/11/19 03:37:13;;;;;;;3.72;3.38;;;8.40;99.90;;;;;;5109949;28;20267;-53
2021/11/19 03:39:41;;;;;;;4.70;3.13;;;8.40;99.90;;;;;;5101500;28;20217;-52
2021/11/19 03:42:10;;;;;;;4.05;3.65;;;8.40;99.90;;;;;;5092418;28;20426;-53
2021/11/19 03:44:47;;;;;;;6.07;3.70;;;8.50;99.90;;;;;;5096824;28;20198;-55
2021/11/19 03:47:41;;;;;;;5.60;4.07;;;8.40;99.90;;;;;;5100565;28;20459;-55
2021/11/19 03:50:17;;;;;;;2.90;2.70;;;8.40;99.90;;;;;;5098913;28;20552;-51
2021/11/19 03:52:45;;;;;;;3.50;3.20;;;8.50;99.90;;;;;;5089182;28;20228;-56
2021/11/19 03:55:23;;;;;;;2.90;2.70;;;8.50;99.90;;;;;;5097961;28;20259;-52
2021/11/19 03:57:51;;;;;;;5.22;4.72;;;8.50;99.90;;;;;;5086902;28;20199;-56
2021/11/19 04:00:34;;;;;;;4.47;4.00;;;8.50;99.90;;;;;;5100988;28;20532;-55
2021/11/19 04:03:02;;;;;;;5.55;4.88;;;8.50;99.90;;;;;;5101841;28;20240;-57
2021/11/19 04:05:33;;;;;;;6.28;4.35;;;8.50;99.90;;;;;;5096699;28;20280;-55
2021/11/19 04:08:00;;;;;;;4.72;3.95;;;8.50;99.90;;;;;;5099290;28;20413;-53
2021/11/19 04:10:28;;;;;;;6.75;5.55;;;8.50;99.90;;;;;;5104501;28;20217;-55
2021/11/19 04:12:56;;;;;;;5.03;4.50;;;8.50;99.90;;;;;;5097216;28;20199;-54
2021/11/19 04:15:29;;;;;;;5.30;4.18;;;8.60;99.90;;;;;;5094226;28;20198;-54
2021/11/19 04:17:57;;;;;;;5.22;4.72;;;8.60;99.90;;;;;;5099665;28;20493;-52
2021/11/19 04:20:26;;;;;;;6.68;6.00;;;8.50;99.90;;;;;;5098340;28;20227;-54
2021/11/19 04:22:53;;;;;;;4.68;4.18;;;8.60;99.90;;;;;;5102726;28;20198;-54
2021/11/19 04:25:23;;;;;;;8.23;6.18;;;8.50;99.90;;;;;;5095574;28;20198;-56
2021/11/19 04:27:51;;;;;;;6.63;5.50;;;8.50;99.90;;;;;;5102368;28;20280;-48
2021/11/19 04:30:25;;;;;;;8.60;6.93;;;8.60;99.90;;;;;;5104452;28;20222;-53
2021/11/19 04:32:52;;;;;;;9.35;7.75;;;8.50;99.90;;;;;;5097398;28;20198;-54
2021/11/19 04:35:20;;;;;;;8.35;7.22;;;8.50;99.90;;;;;;5095578;28;20190;-53
2021/11/19 04:37:48;;;;;;;11.77;8.05;;;8.60;99.90;;;;;;5106971;28;20198;-56
2021/11/19 04:40:17;;;;;;;8.77;7.32;;;8.60;99.90;;;;;;5102860;28;20229;-54
2021/11/19 04:42:46;;;;;;;8.50;7.35;;;8.60;99.90;;;;;;5103593;28;20210;-52
2021/11/19 04:45:18;;;;;;;10.40;8.18;;;8.60;99.90;;;;;;5096299;28;20447;-53
2021/11/19 04:47:45;;;;;;;12.45;8.88;;;8.60;99.90;;;;;;5103684;28;20214;-51
2021/11/19 04:50:15;;;;;;;11.63;9.52;;;8.60;99.90;;;;;;5096612;28;20432;-54
2021/11/19 04:52:43;;;;;;;11.50;8.07;;;8.60;99.90;;;;;;5101363;28;20222;-52
2021/11/19 04:55:11;;;;;;;10.88;8.95;;;8.60;99.90;;;;;;5102828;28;20198;-52
2021/11/19 04:57:39;;;;;;;11.88;9.00;;;8.70;99.90;;;;;;5091019;28;20198;-52
2021/11/19 05:00:20;;;;;;;11.70;9.35;;;8.70;99.90;;;;;;5110677;28;20393;-53
2021/11/19 05:02:47;;;;;;;10.63;9.05;;;8.70;99.90;;;;;;5087422;28;20252;-52
2021/11/19 05:05:15;;;;;;;14.73;8.45;;;8.70;99.90;;;;;;5090082;28;20206;-55
2021/11/19 05:07:42;;;;;;;11.23;10.02;;;8.70;99.90;;;;;;5088114;28;20406;-52
2021/11/19 05:10:10;;;;;;;15.80;10.68;;;8.70;99.90;;;;;;5090031;28;20294;-53
2021/11/19 05:12:50;;;;;;;9.13;8.23;;;8.70;99.90;;;;;;5089666;28;20193;-54
2021/11/19 05:15:17;;;;;;;13.20;9.15;;;8.80;99.90;;;;;;5102515;28;20249;-53
2021/11/19 05:17:45;;;;;;;19.33;11.15;;;8.80;99.90;;;;;;5095502;28;20206;-56
2021/11/19 05:20:16;;;;;;;19.20;10.90;;;8.80;99.90;;;;;;5098954;28;20230;-56
2021/11/19 05:22:44;;;;;;;15.15;10.43;;;8.80;99.90;;;;;;5097573;28;20198;-57
2021/11/19 05:25:14;;;;;;;11.45;10.23;;;8.80;99.90;;;;;;5094036;28;20414;-54
2021/11/19 05:27:43;;;;;;;13.48;10.93;;;8.80;99.90;;;;;;5097026;28;20516;-58
2021/11/19 05:30:12;;;;;;;14.48;9.98;;;8.80;99.90;;;;;;5099414;28;20226;-59
2021/11/19 05:32:41;;;;;;;12.10;9.57;;;8.80;99.90;;;;;;5103616;28;20198;-56
2021/11/19 05:35:09;;;;;;;13.82;11.10;;;8.90;99.90;;;;;;5096766;28;20194;-56
2021/11/19 05:37:38;;;;;;;16.05;13.27;;;8.90;99.90;;;;;;5104915;28;20244;-57
2021/11/19 05:40:07;;;;;;;13.65;10.73;;;8.90;99.90;;;;;;5092031;28;20354;-52
2021/11/19 05:42:34;;;;;;;17.90;11.35;;;8.90;99.90;;;;;;5098281;28;20477;-54
2021/11/19 05:45:03;;;;;;;16.38;11.45;;;8.90;99.90;;;;;;5099587;28;20202;-56
2021/11/19 05:47:31;;;;;;;16.50;12.45;;;8.90;99.90;;;;;;5092130;28;20221;-58
2021/11/19 05:50:00;;;;;;;12.35;9.65;;;9.00;99.90;;;;;;5096292;28;20420;-52
2021/11/19 05:52:28;;;;;;;15.10;10.70;;;9.00;99.90;;;;;;5095363;28;20195;-53
2021/11/19 05:54:56;;;;;;;14.13;9.82;;;9.00;99.90;;;;;;5097810;28;20202;-51
2021/11/19 05:57:25;;;;;;;12.93;9.85;;;9.00;99.90;;;;;;5100537;28;20534;-59
2021/11/19 05:59:52;;;;;;;12.98;9.23;;;9.00;99.90;;;;;;5102198;28;20252;-53
2021/11/19 06:02:21;;;;;;;14.02;11.30;;;9.00;99.90;;;;;;5093497;28;20198;-56
2021/11/19 06:04:49;;;;;;;11.90;10.40;;;9.10;99.90;;;;;;5095231;28;20480;-53
2021/11/19 06:07:17;;;;;;;19.48;11.93;;;9.10;99.90;;;;;;5109105;28;20232;-56
2021/11/19 06:09:47;;;;;;;12.25;10.23;;;9.10;99.90;;;;;;5093020;28;20588;-52
2021/11/19 06:12:21;;;;;;;10.52;9.45;;;9.20;99.90;;;;;;5100664;28;20198;-55
2021/11/19 06:14:53;;;;;;;11.98;9.32;;;9.20;99.90;;;;;;5096367;28;20255;-56
2021/11/19 06:17:33;;;;;;;11.45;8.95;;;9.20;99.90;;;;;;5083873;28;20195;-57
2021/11/19 06:20:17;;;;;;;13.57;11.75;;;9.20;99.90;;;;;;5084805;28;20217;-55
2021/11/19 06:22:49;;;;;;;14.18;8.48;;;9.30;99.90;;;;;;5086543;28;20233;-54
2021/11/19 06:25:23;;;;;;;13.07;8.45;;;9.30;99.90;;;;;;5082095;28;20243;-57
2021/11/19 06:27:53;;;;;;;13.32;9.50;;;9.30;99.90;;;;;;5085264;28;20232;-56
2021/11/19 06:30:22;;;;;;;10.07;8.82;;;9.40;99.90;;;;;;5080867;28;20588;-55
2021/11/19 06:32:49;;;;;;;10.70;8.48;;;9.40;99.90;;;;;;5092876;28;20562;-56
2021/11/19 06:35:17;;;;;;;11.45;7.53;;;9.40;99.90;;;;;;5100293;28;20247;-55
2021/11/19 06:37:45;;;;;;;13.20;8.88;;;9.40;99.90;;;;;;5099395;28;20273;-55
2021/11/19 06:40:17;;;;;;;12.85;8.95;;;9.50;99.90;;;;;;5094886;28;20355;-56
2021/11/19 06:42:46;;;;;;;8.85;7.32;;;9.50;99.90;;;;;;5094843;28;20202;-57
2021/11/19 06:45:15;;;;;;;11.10;8.45;;;9.60;99.90;;;;;;5098530;28;20529;-56
2021/11/19 06:47:44;;;;;;;10.75;6.95;;;9.60;99.90;;;;;;5085459;28;20234;-55
2021/11/19 06:50:14;;;;;;;7.20;6.45;;;9.70;99.90;;;;;;5097250;28;20218;-56
2021/11/19 06:52:42;;;;;;;8.98;7.10;;;9.70;99.90;;;;;;5093892;28;20397;-57
2021/11/19 06:55:10;;;;;;;8.27;6.40;;;9.70;99.90;;;;;;5098907;28;20198;-56
2021/11/19 06:57:39;;;;;;;15.23;8.75;;;9.70;99.90;;;;;;5081218;28;20200;-56
2021/11/19 07:00:18;;;;;;;8.10;6.85;;;9.80;99.90;;;;;;5086335;28;20215;-57
2021/11/19 07:02:46;;;;;;;11.55;8.00;;;9.80;99.90;;;;;;5098968;28;20509;-56
2021/11/19 07:05:14;;;;;;;8.68;7.80;;;9.80;99.90;;;;;;5097806;28;20448;-55
2021/11/19 07:07:42;;;;;;;12.55;7.55;;;9.80;99.90;;;;;;5098893;28;20212;-55
2021/11/19 07:10:12;;;;;;;9.77;8.57;;;9.80;99.90;;;;;;5094837;28;20230;-55
2021/11/19 07:12:39;;;;;;;13.85;7.05;;;9.90;99.90;;;;;;5099667;28;20195;-57
2021/11/19 07:15:09;;;;;;;11.65;8.27;;;9.80;99.90;;;;;;5094572;28;20246;-55
2021/11/19 07:17:38;;;;;;;9.82;8.00;;;9.90;99.90;;;;;;5095352;28;20224;-54
2021/11/19 07:20:09;;;;;;;11.25;8.18;;;9.90;99.90;;;;;;5092185;28;20219;-55
2021/11/19 07:22:37;;;;;;;10.07;8.40;;;9.90;99.90;;;;;;5083436;28;20386;-57
2021/11/19 07:25:06;;;;;;;13.00;6.78;;;9.90;99.90;;;;;;5100596;28;20248;-56
2021/11/19 07:27:34;;;;;;;9.95;8.30;;;9.90;99.90;;;;;;5092003;28;20204;-56
2021/11/19 07:30:05;;;;;;;11.45;8.23;;;10.00;99.90;;;;;;5092584;28;20218;-57
2021/11/19 07:32:32;;;;;;;9.82;8.15;;;10.10;99.90;;;;;;5090738;28;20292;-56
2021/11/19 07:35:00;;;;;;;10.82;9.70;;;10.10;99.90;;;;;;5091535;28;20196;-55
2021/11/19 07:37:27;;;;;;;8.73;7.35;;;10.10;99.90;;;;;;5094912;28;20210;-53
2021/11/19 07:39:55;;;;;;;9.95;7.75;;;10.10;99.90;;;;;;5084737;28;20223;-50
2021/11/19 07:42:22;;;;;;;9.02;7.90;;;10.20;99.90;;;;;;5099266;28;20454;-54
2021/11/19 07:44:49;;;;;;;8.85;7.88;;;10.20;99.90;;;;;;5089486;28;20199;-56
2021/11/19 07:47:16;;;;;;;8.38;6.70;;;10.20;99.90;;;;;;5093337;28;20194;-56
2021/11/19 07:49:44;;;;;;;9.55;8.55;;;10.20;99.90;;;;;;5081808;28;20226;-57
2021/11/19 07:52:11;;;;;;;11.18;8.43;;;10.20;99.90;;;;;;5098651;28;20495;-58
2021/11/19 07:54:38;;;;;;;8.70;7.68;;;10.20;99.90;;;;;;5097553;28;20203;-57
2021/11/19 07:57:06;;;;;;;8.20;7.40;;;10.30;99.90;;;;;;5098315;28;20430;-56
2021/11/19 07:59:35;;;;;;;9.15;6.68;;;10.40;99.90;;;;;;5091081;28;20219;-53
2021/11/19 08:02:03;;;;;;;8.85;6.97;;;10.40;99.90;;;;;;5089214;28;20204;-56
2021/11/19 08:04:33;;;;;;;9.15;7.95;;;10.40;99.90;;;;;;5093229;28;20192;-55
2021/11/19 08:07:02;;;;;;;7.93;6.22;;;10.40;99.90;;;;;;5094677;28;20211;-56
2021/11/19 08:09:30;;;;;;;8.77;7.05;;;10.40;99.90;;;;;;5083290;28;20247;-60
2021/11/19 08:11:57;;;;;;;8.63;7.78;;;10.50;99.90;;;;;;5098340;28;20199;-54
2021/11/19 08:14:25;;;;;;;9.27;6.45;;;10.40;99.90;;;;;;5092025;28;20195;-56
2021/11/19 08:17:02;;;;;;;7.72;6.88;;;10.50;99.90;;;;;;5087330;28;20197;-57
2021/11/19 08:19:43;;;;;;;12.60;8.48;;;10.50;99.90;;;;;;5092175;28;20241;-58
2021/11/19 08:22:13;;;;;;;13.07;6.70;;;10.50;99.90;;;;;;5089988;28;20306;-58
2021/11/19 08:24:41;;;;;;;9.25;8.13;;;10.60;99.90;;;;;;5093623;28;20204;-55
2021/11/19 08:27:22;;;;;;;8.07;7.25;;;10.60;99.90;;;;;;5094842;28;20364;-55
2021/11/19 08:29:56;;;;;;;17.70;7.00;;;10.60;99.90;;;;;;5098307;28;20476;-57
2021/11/19 08:32:26;;;;;;;8.50;6.97;;;10.60;99.90;;;;;;5091200;28;20474;-54
2021/11/19 08:34:54;;;;;;;8.63;7.30;;;10.60;99.90;;;;;;5099195;28;20196;-55
2021/11/19 08:37:24;;;;;;;7.80;7.00;;;10.60;99.90;;;;;;5098912;28;20194;-57
2021/11/19 08:39:51;;;;;;;7.43;6.10;;;10.60;99.90;;;;;;5089459;28;20565;-57
2021/11/19 08:42:20;;;;;;;7.47;6.10;;;10.70;99.90;;;;;;5095839;28;20264;-58
2021/11/19 08:44:48;;;;;;;7.10;6.20;;;10.60;99.90;;;;;;5098986;28;20201;-53
2021/11/19 08:47:36;;;;;;;10.13;6.75;;;10.70;99.90;;;;;;5100106;28;20202;-60
2021/11/19 08:50:06;;;;;;;7.57;6.88;;;10.70;99.90;;;;;;5102360;28;20289;-56
2021/11/19 08:52:35;;;;;;;10.60;7.82;;;10.70;99.90;;;;;;5098651;28;20203;-54
2021/11/19 08:55:08;;;;;;;9.13;5.95;;;10.80;99.90;;;;;;5085887;28;20261;-57
2021/11/19 08:57:35;;;;;;;9.13;7.22;;;10.80;99.90;;;;;;5085126;28;20283;-56
2021/11/19 09:00:07;;;;;;;7.75;6.53;;;10.80;99.90;;;;;;5084858;28;20223;-58
2021/11/19 09:02:34;;;;;;;10.05;5.78;;;10.90;99.90;;;;;;5081286;28;20617;-56
2021/11/19 09:05:05;;;;;;;9.00;5.85;;;10.80;99.90;;;;;;5081385;28;20472;-56
2021/11/19 09:07:34;;;;;;;9.35;7.30;;;10.90;99.90;;;;;;5082571;28;20201;-54
2021/11/19 09:10:09;;;;;;;7.50;6.43;;;10.90;99.90;;;;;;5087618;28;20227;-53
2021/11/19 09:12:37;;;;;;;7.90;6.28;;;10.90;99.90;;;;;;5082170;28;20274;-56
2021/11/19 09:15:08;;;;;;;6.90;6.13;;;10.90;99.90;;;;;;5088785;28;20263;-53
2021/11/19 09:18:02;;;;;;;6.65;5.90;;;10.80;99.90;;;;;;5086630;28;20216;-58
2021/11/19 09:21:01;;;;;;;8.25;5.43;;;10.90;99.90;;;;;;5085501;28;20442;-58
2021/11/19 09:23:32;;;;;;;5.32;4.13;;;11.00;99.90;;;;;;5076588;28;20419;-52
2021/11/19 09:26:07;;;;;;;5.30;4.80;;;10.90;99.90;;;;;;5085281;28;20204;-59
2021/11/19 09:28:37;;;;;;;9.98;6.03;;;11.00;99.90;;;;;;5092094;28;20258;-54
2021/11/19 09:31:06;;;;;;;6.82;6.10;;;11.00;99.90;;;;;;5092807;28;20254;-56
2021/11/19 09:33:35;;;;;;;6.07;5.50;;;11.00;99.90;;;;;;5095620;28;20198;-56
2021/11/19 09:36:04;;;;;;;7.05;5.50;;;10.90;99.90;;;;;;5098485;28;20244;-56
2021/11/19 09:38:31;;;;;;;5.10;4.60;;;10.90;99.90;;;;;;5091900;28;20199;-56
2021/11/19 09:41:33;;;;;;;6.43;5.00;;;10.90;99.90;;;;;;5099194;28;20281;-57
2021/11/19 09:44:07;;;;;;;6.07;5.38;;;10.90;99.90;;;;;;5102061;28;20262;-55
2021/11/19 09:46:56;;;;;;;6.97;4.90;;;10.90;99.90;;;;;;5102328;28;20201;-54
2021/11/19 09:49:54;;;;;;;7.40;5.40;;;10.90;99.90;;;;;;5091036;28;20466;-56
2021/11/19 09:52:42;;;;;;;7.60;5.15;;;11.00;99.90;;;;;;5101669;28;20195;-52
2021/11/19 09:55:34;;;;;;;7.53;4.65;;;11.00;99.90;;;;;;5099384;28;20219;-57
2021/11/19 09:58:53;;;;;;;6.47;5.40;;;11.10;99.90;;;;;;5100756;28;20253;-58
2021/11/19 10:01:40;;;;;;;4.78;4.35;;;11.00;99.90;;;;;;5068318;28;20422;-52
2021/11/19 10:04:29;;;;;;;5.43;4.85;;;11.10;99.90;;;;;;5088172;28;20225;-55
2021/11/19 10:07:04;;;;;;;6.25;4.63;;;11.10;99.90;;;;;;5083689;28;20421;-57
2021/11/19 10:09:48;;;;;;;4.40;4.00;;;11.10;99.90;;;;;;5089705;28;20232;-57
2021/11/19 10:12:21;;;;;;;6.40;4.30;;;11.20;99.90;;;;;;5095638;28;20429;-53
2021/11/19 10:15:03;;;;;;;5.55;4.35;;;11.20;99.90;;;;;;5100567;28;20203;-57
2021/11/19 10:17:36;;;;;;;6.50;4.03;;;11.30;99.90;;;;;;5096585;28;20235;-57
2021/11/19 10:20:33;;;;;;;4.70;3.50;;;11.30;99.90;;;;;;5099611;28;20320;-56
2021/11/19 10:23:34;;;;;;;3.47;3.13;;;11.40;99.90;;;;;;5090751;28;20291;-60
2021/11/19 10:26:07;;;;;;;5.40;4.32;;;11.40;99.90;;;;;;5097549;28;20326;-53
2021/11/19 10:28:34;;;;;;;7.07;4.90;;;11.40;99.90;;;;;;5090962;28;20200;-54
2021/11/19 10:31:02;;;;;;;4.90;4.38;;;11.40;99.90;;;;;;5096339;28;20201;-53
2021/11/19 10:33:56;;;;;;;4.75;4.28;;;11.50;99.90;;;;;;5096940;28;20201;-55
2021/11/19 10:36:33;;;;;;;4.45;4.05;;;11.60;99.90;;;;;;5096303;28;20197;-57
2021/11/19 10:39:18;;;;;;;5.07;3.80;;;11.60;99.90;;;;;;5090325;28;20216;-58
2021/11/19 10:42:10;;;;;;;3.58;3.28;;;11.70;99.90;;;;;;5089203;28;20221;-54
2021/11/19 10:45:01;;;;;;;6.18;4.45;;;11.90;99.90;;;;;;5087843;28;20258;-58
2021/11/19 10:48:02;;;;;;;3.63;3.33;;;12.00;99.90;;;;;;5086744;28;20239;-57
2021/11/19 10:51:02;;;;;;;4.45;3.85;;;12.00;99.90;;;;;;5099259;28;20661;-54
2021/11/19 10:54:20;;;;;;;3.97;3.20;;;11.90;99.90;;;;;;5092364;28;20196;-57
2021/11/19 10:57:08;;;;;;;3.05;2.75;;;11.80;99.90;;;;;;5072371;28;20203;-56
2021/11/19 11:00:14;;;;;;;4.28;3.45;;;11.80;99.90;;;;;;5099975;28;20536;-57
2021/11/19 11:02:51;;;;;;;3.40;3.10;;;11.80;99.90;;;;;;5097247;28;20209;-55
2021/11/19 11:05:37;;;;;;;4.15;3.85;;;11.70;99.90;;;;;;5109486;28;20245;-56
2021/11/19 11:08:20;;;;;;;3.05;2.75;;;11.60;99.90;;;;;;5102321;28;20206;-56
2021/11/19 11:11:04;;;;;;;4.20;3.35;;;11.60;99.90;;;;;;5092156;28;20240;-53
2021/11/19 11:13:31;;;;;;;3.25;2.97;;;11.60;99.90;;;;;;5093792;28;20230;-56
2021/11/19 11:16:01;;;;;;;4.30;3.97;;;11.60;99.90;;;;;;5099879;28;20564;-56
2021/11/19 11:18:32;;;;;;;3.20;3.00;;;11.60;99.90;;;;;;5097364;28;20503;-57
2021/11/19 11:21:24;;;;;;;4.93;3.70;;;11.60;99.90;;;;;;5104740;28;20237;-53
2021/11/19 11:23:59;;;;;;;3.85;3.55;;;11.60;99.90;;;;;;5094517;28;20197;-57
2021/11/19 11:26:41;;;;;;;3.58;3.25;;;11.70;99.90;;;;;;5095790;28;20302;-55
2021/11/19 11:29:08;;;;;;;3.85;3.50;;;11.70;99.90;;;;;;5099595;28;20243;-56
2021/11/19 11:31:57;;;;;;;3.10;2.50;;;11.70;99.90;;;;;;5094812;28;20244;-53
2021/11/19 11:34:35;;;;;;;3.90;3.60;;;11.60;99.90;;;;;;5092805;28;20501;-54
2021/11/19 11:37:11;;;;;;;3.33;2.97;;;11.60;99.90;;;;;;5097832;28;20367;-56
2021/11/19 11:39:57;;;;;;;3.58;2.53;;;11.70;99.90;;;;;;5092168;28;20543;-53
2021/11/19 11:42:30;;;;;;;3.90;3.40;;;11.70;99.90;;;;;;5092356;28;20231;-57
2021/11/19 11:45:01;;;;;;;3.97;3.65;;;11.70;99.90;;;;;;5099212;28;20209;-55
2021/11/19 11:47:51;;;;;;;4.10;2.90;;;11.70;99.90;;;;;;5099642;28;20246;-56
2021/11/19 11:50:38;;;;;;;4.82;2.72;;;11.70;99.90;;;;;;5099212;28;20314;-56
2021/11/19 11:53:51;;;;;;;4.18;3.25;;;11.70;99.90;;;;;;5098889;28;20564;-56
2021/11/19 11:56:27;;;;;;;3.58;2.95;;;11.70;99.90;;;;;;5094431;28;20511;-55
2021/11/19 11:59:04;;;;;;;3.75;2.92;;;11.70;99.90;;;;;;5096653;28;20357;-60
2021/11/19 12:01:48;;;;;;;3.50;3.13;;;11.70;99.90;;;;;;5096963;28;20197;-56
2021/11/19 12:04:24;;;;;;;4.30;3.17;;;11.70;99.90;;;;;;5092927;28;20195;-56
2021/11/19 12:07:19;;;;;;;3.92;3.50;;;11.70;99.90;;;;;;5114261;28;20242;-56
2021/11/19 12:10:01;;;;;;;2.80;2.60;;;11.70;99.90;;;;;;5097629;28;20299;-57
2021/11/19 12:12:44;;;;;;;3.40;3.10;;;11.70;99.90;;;;;;5097730;28;20197;-59
2021/11/19 12:15:25;;;;;;;3.50;3.20;;;11.70;99.90;;;;;;5093466;28;20223;-55
2021/11/19 12:18:07;;;;;;;3.97;3.65;;;11.80;99.90;;;;;;5096889;28;20431;-56
2021/11/19 12:20:46;;;;;;;4.78;3.65;;;11.70;99.90;;;;;;5088332;28;20265;-55
2021/11/19 12:23:39;;;;;;;3.60;2.80;;;11.80;99.90;;;;;;5089420;28;20243;-56
2021/11/19 12:26:18;;;;;;;6.20;3.35;;;11.70;99.90;;;;;;5102932;28;20250;-53
2021/11/19 12:28:53;;;;;;;4.45;3.75;;;11.70;99.90;;;;;;5097695;28;20201;-57
2021/11/19 12:31:34;;;;;;;3.28;2.97;;;11.70;99.90;;;;;;5096979;28;20201;-57
2021/11/19 12:34:16;;;;;;;3.38;3.08;;;11.70;99.90;;;;;;5096639;28;20270;-55
2021/11/19 12:36:58;;;;;;;4.20;3.90;;;11.70;99.90;;;;;;5096547;28;20515;-59
2021/11/19 12:39:26;;;;;;;4.95;2.90;;;11.70;99.90;;;;;;5098993;28;20233;-56
2021/11/19 12:42:39;;;;;;;4.32;3.30;;;11.70;99.90;;;;;;5098502;28;20209;-57
2021/11/19 12:45:22;;;;;;;4.30;3.50;;;11.70;99.90;;;;;;5101323;28;20277;-54
2021/11/19 12:48:21;;;;;;;4.20;3.80;;;11.70;99.90;;;;;;5103378;28;20247;-59
2021/11/19 12:51:14;;;;;;;3.88;3.58;;;11.60;99.90;;;;;;5098602;28;20232;-58
2021/11/19 12:53:43;;;;;;;4.90;4.50;;;11.60;99.90;;;;;;5102789;28;20299;-56
2021/11/19 12:56:21;;;;;;;7.70;3.72;;;11.60;99.90;;;;;;5102784;28;20200;-59
2021/11/19 12:59:14;;;;;;;4.10;3.65;;;11.60;99.90;;;;;;5100762;28;20196;-59
2021/11/19 13:02:23;;;;;;;6.32;3.42;;;11.60;99.90;;;;;;5094820;28;20201;-56
2021/11/19 13:05:10;;;;;;;3.90;3.45;;;11.60;99.90;;;;;;5097501;28;20204;-59
2021/11/19 13:07:55;;;;;;;3.42;3.13;;;11.60;99.90;;;;;;5093750;28;20522;-59
2021/11/19 13:10:37;;;;;;;6.53;4.22;;;11.70;99.90;;;;;;5094682;28;20262;-57
2021/11/19 13:13:27;;;;;;;7.35;4.22;;;11.70;99.90;;;;;;5101253;28;20245;-54
2021/11/19 13:16:22;;;;;;;5.05;4.18;;;11.70;99.90;;;;;;5095438;28;20193;-54
2021/11/19 13:18:53;;;;;;;5.80;4.68;;;11.70;99.90;;;;;;5102046;28;20209;-53
2021/11/19 13:21:32;;;;;;;3.45;3.15;;;11.70;99.90;;;;;;5096666;28;20507;-57
2021/11/19 13:24:11;;;;;;;4.78;4.32;;;11.70;99.90;;;;;;5103335;28;20250;-58
2021/11/19 13:27:09;;;;;;;5.20;4.63;;;11.70;99.90;;;;;;5098975;28;20207;-55
2021/11/19 13:29:40;;;;;;;5.00;4.43;;;11.70;99.90;;;;;;5101564;28;20540;-55